Time;durP1;ratioP1;P1;durP2;ratioP2;P2;SDS_P1;SDS_P2;PMS_P1;PMS_P2;Temp;Humidity;BMP_temperature;BMP_pressure;BME280_temperature;BME280_humidity;BME280_pressure;Samples;Min_cycle;Max_cycle;Signal;HPM_P1;HPM_P2
2023/09/08 00:02:58;;;;;;;6.05;5.47;;;19.30;99.30;;;;;;6178054;28;20102;-80
2023/09/08 00:06:00;;;;;;;5.25;4.70;;;19.30;99.60;;;;;;6177515;28;20415;-79
2023/09/08 00:09:04;;;;;;;6.13;4.93;;;19.20;99.80;;;;;;6177387;28;20499;-79
2023/09/08 00:12:07;;;;;;;8.77;4.88;;;19.10;99.90;;;;;;6175794;28;20156;-80
2023/09/08 00:15:10;;;;;;;5.20;4.65;;;19.00;99.90;;;;;;6176680;28;20077;-80
2023/09/08 00:18:12;;;;;;;12.25;6.00;;;19.00;99.90;;;;;;6177019;28;20055;-80
2023/09/08 00:21:14;;;;;;;9.27;4.97;;;18.80;99.90;;;;;;6177895;28;20195;-80
2023/09/08 00:24:17;;;;;;;8.30;5.57;;;18.80;99.90;;;;;;6197690;28;20051;-79
2023/09/08 00:27:20;;;;;;;7.35;5.95;;;18.70;99.90;;;;;;6174904;28;20447;-79
2023/09/08 00:30:22;;;;;;;5.28;4.78;;;18.70;99.90;;;;;;6173581;28;20049;-78
2023/09/08 00:33:23;;;;;;;6.47;4.40;;;18.60;99.90;;;;;;6173818;28;20054;-78
2023/09/08 00:36:25;;;;;;;5.88;5.13;;;18.50;99.90;;;;;;6170625;28;20054;-79
2023/09/08 00:39:27;;;;;;;6.88;5.90;;;18.60;99.90;;;;;;6174240;28;20407;-79
2023/09/08 00:42:30;;;;;;;6.65;5.95;;;18.50;99.90;;;;;;6173265;28;20042;-78
2023/09/08 00:45:32;;;;;;;7.57;4.82;;;18.40;99.90;;;;;;6202892;28;20042;-79
2023/09/08 00:48:34;;;;;;;6.60;4.95;;;18.30;99.90;;;;;;6222447;28;20042;-78
2023/09/08 00:51:37;;;;;;;6.35;4.88;;;18.30;99.90;;;;;;6222224;28;20042;-80
2023/09/08 00:54:39;;;;;;;5.70;4.82;;;18.20;99.90;;;;;;6222208;28;20046;-80
2023/09/08 00:57:42;;;;;;;5.55;5.03;;;18.20;99.90;;;;;;6222363;28;20041;-80
2023/09/08 01:00:44;;;;;;;6.88;5.35;;;18.00;99.90;;;;;;6221554;28;20421;-79
2023/09/08 01:03:46;;;;;;;6.05;4.85;;;17.90;99.90;;;;;;6222249;28;20352;-82
2023/09/08 01:06:48;;;;;;;7.18;5.75;;;17.90;99.90;;;;;;6223371;28;20502;-78
2023/09/08 01:09:50;;;;;;;8.57;6.07;;;17.80;99.90;;;;;;6222019;28;20518;-80
2023/09/08 01:12:53;;;;;;;4.85;4.40;;;17.80;99.90;;;;;;6221930;28;20061;-80
2023/09/08 01:15:55;;;;;;;8.63;5.70;;;17.80;99.90;;;;;;6222586;28;20054;-80
2023/09/08 01:18:57;;;;;;;6.78;5.97;;;17.70;99.90;;;;;;6222659;28;20050;-80
2023/09/08 01:22:47;;;;;;;7.97;7.03;;;17.60;99.90;;;;;;6213496;28;20054;-79
2023/09/08 01:25:54;;;;;;;8.38;6.85;;;17.50;99.90;;;;;;6121091;29;20047;-79
2023/09/08 01:28:56;;;;;;;7.45;5.35;;;17.40;99.90;;;;;;6127656;28;20051;-81
2023/09/08 01:31:58;;;;;;;8.50;6.30;;;17.40;99.90;;;;;;6215384;28;20052;-80
2023/09/08 01:35:01;;;;;;;11.60;7.70;;;17.30;99.90;;;;;;6225064;28;20056;-80
2023/09/08 01:38:02;;;;;;;6.82;6.13;;;17.30;99.90;;;;;;6223744;28;20072;-80
2023/09/08 01:41:05;;;;;;;7.47;6.25;;;17.20;99.90;;;;;;6223429;28;20053;-80
2023/09/08 01:44:10;;;;;;;6.03;4.88;;;17.20;99.90;;;;;;6227392;28;20046;-80
2023/09/08 01:47:11;;;;;;;7.20;5.88;;;17.10;99.90;;;;;;6228787;28;20056;-80
2023/09/08 01:50:13;;;;;;;9.48;6.45;;;17.10;99.90;;;;;;6227764;28;20049;-80
2023/09/08 01:53:15;;;;;;;7.35;6.65;;;17.00;99.90;;;;;;6227525;28;20050;-81
2023/09/08 01:56:18;;;;;;;8.65;6.40;;;17.00;99.90;;;;;;6227587;28;20042;-81
2023/09/08 01:59:19;;;;;;;7.75;6.30;;;17.00;99.90;;;;;;6228149;28;20064;-81
2023/09/08 02:02:21;;;;;;;6.85;6.22;;;16.90;99.90;;;;;;6226783;28;20050;-81
2023/09/08 02:05:25;;;;;;;9.73;6.15;;;17.00;99.90;;;;;;6226704;28;20046;-82
2023/09/08 02:08:27;;;;;;;8.43;4.93;;;17.00;99.90;;;;;;6226959;28;20038;-81
2023/09/08 02:11:30;;;;;;;7.07;6.22;;;16.90;99.90;;;;;;6227122;28;20045;-81
2023/09/08 02:14:31;;;;;;;10.23;5.85;;;16.90;99.90;;;;;;6226990;28;20418;-80
2023/09/08 02:17:33;;;;;;;6.68;6.07;;;16.80;99.90;;;;;;6226883;28;20053;-81
2023/09/08 02:20:35;;;;;;;8.95;6.63;;;16.80;99.90;;;;;;6225934;28;20418;-81
2023/09/08 02:23:37;;;;;;;6.70;6.10;;;16.70;99.90;;;;;;6226680;28;20085;-81
2023/09/08 02:26:40;;;;;;;7.70;6.63;;;16.60;99.90;;;;;;6226021;28;20051;-81
2023/09/08 02:29:42;;;;;;;9.40;6.28;;;16.60;99.90;;;;;;6225972;28;20410;-80
2023/09/08 02:32:44;;;;;;;10.93;6.60;;;16.60;99.90;;;;;;6225939;28;20045;-80
2023/09/08 02:35:46;;;;;;;6.78;6.00;;;16.60;99.90;;;;;;6226220;28;20411;-81
2023/09/08 02:38:47;;;;;;;9.25;7.28;;;16.50;99.90;;;;;;6226306;28;20049;-82
2023/09/08 02:41:50;;;;;;;7.50;6.25;;;16.50;99.90;;;;;;6225354;28;20042;-82
2023/09/08 02:44:53;;;;;;;7.00;6.03;;;16.50;99.90;;;;;;6225715;28;20046;-81
2023/09/08 02:47:55;;;;;;;9.15;6.22;;;16.40;99.90;;;;;;6226390;28;20058;-81
2023/09/08 02:50:57;;;;;;;11.40;7.22;;;16.40;99.90;;;;;;6226208;28;20580;-82
2023/09/08 02:53:58;;;;;;;7.57;6.68;;;16.30;99.90;;;;;;6225378;28;20081;-81
2023/09/08 02:57:01;;;;;;;7.90;6.22;;;16.20;99.90;;;;;;6225696;28;20049;-80
2023/09/08 03:00:06;;;;;;;7.22;5.97;;;16.20;99.90;;;;;;6226245;28;20128;-82
2023/09/08 03:03:08;;;;;;;8.25;6.57;;;16.20;99.90;;;;;;6226164;28;20400;-82
2023/09/08 03:06:10;;;;;;;7.47;6.07;;;16.20;99.90;;;;;;6225863;28;20522;-80
2023/09/08 03:09:12;;;;;;;10.15;6.28;;;16.10;99.90;;;;;;6226201;28;20045;-81
2023/09/08 03:12:15;;;;;;;6.60;5.15;;;16.10;99.90;;;;;;6225351;28;20046;-82
2023/09/08 03:15:17;;;;;;;7.82;6.22;;;16.10;99.90;;;;;;6226363;28;20061;-81
2023/09/08 03:18:18;;;;;;;8.52;6.30;;;16.00;99.90;;;;;;6225646;28;20057;-80
2023/09/08 03:21:20;;;;;;;6.82;5.90;;;15.90;99.90;;;;;;6224301;28;20421;-81
2023/09/08 03:24:22;;;;;;;9.00;5.93;;;15.90;99.90;;;;;;6225954;28;20065;-80
2023/09/08 03:27:25;;;;;;;8.82;6.65;;;15.80;99.90;;;;;;6226135;28;20499;-80
2023/09/08 03:30:27;;;;;;;8.57;7.45;;;15.80;99.90;;;;;;6225530;28;20045;-81
2023/09/08 03:33:28;;;;;;;11.25;6.30;;;15.80;99.90;;;;;;6225521;28;20049;-80
2023/09/08 03:36:30;;;;;;;9.27;6.78;;;15.70;99.90;;;;;;6225571;28;20050;-80
2023/09/08 03:39:32;;;;;;;8.07;6.65;;;15.70;99.90;;;;;;6225892;28;20050;-80
2023/09/08 03:42:35;;;;;;;7.00;6.10;;;15.70;99.90;;;;;;6224420;28;20046;-81
2023/09/08 03:45:37;;;;;;;8.75;6.95;;;15.70;99.90;;;;;;6225451;28;20041;-81
2023/09/08 03:48:38;;;;;;;7.03;6.15;;;15.70;99.90;;;;;;6225662;28;20045;-81
2023/09/08 03:51:40;;;;;;;8.68;5.88;;;15.80;99.90;;;;;;6224530;28;20076;-79
2023/09/08 03:54:42;;;;;;;8.15;6.28;;;15.70;99.90;;;;;;6225027;28;20421;-81
2023/09/08 03:57:45;;;;;;;7.78;6.28;;;15.70;99.90;;;;;;6224621;28;20053;-80
2023/09/08 04:00:47;;;;;;;9.27;6.95;;;15.70;99.90;;;;;;6223995;28;20049;-80
2023/09/08 04:03:48;;;;;;;8.93;6.22;;;15.60;99.90;;;;;;6224396;28;20050;-81
2023/09/08 04:06:50;;;;;;;10.60;6.18;;;15.60;99.90;;;;;;6224696;28;20061;-80
2023/09/08 04:09:52;;;;;;;9.20;6.88;;;15.60;99.90;;;;;;6223632;28;20041;-80
2023/09/08 04:12:55;;;;;;;7.95;6.20;;;15.50;99.90;;;;;;6223814;28;20046;-81
2023/09/08 04:15:56;;;;;;;6.47;5.65;;;15.50;99.90;;;;;;6223294;28;20522;-80
2023/09/08 04:18:58;;;;;;;9.32;6.22;;;15.40;99.90;;;;;;6224371;28;20362;-80
2023/09/08 04:22:00;;;;;;;6.10;5.50;;;15.40;99.90;;;;;;6224262;28;20506;-79
2023/09/08 04:25:02;;;;;;;6.30;5.70;;;15.30;99.90;;;;;;6224562;28;20510;-80
2023/09/08 04:28:05;;;;;;;6.93;6.22;;;15.30;99.90;;;;;;6224772;28;20042;-81
2023/09/08 04:31:07;;;;;;;7.93;6.82;;;15.30;99.90;;;;;;6225423;28;20056;-81
2023/09/08 04:34:09;;;;;;;7.47;6.57;;;15.20;99.90;;;;;;6224013;28;20052;-79
2023/09/08 04:37:11;;;;;;;7.63;6.30;;;15.20;99.90;;;;;;6223618;28;20049;-78
2023/09/08 04:40:12;;;;;;;7.70;6.32;;;15.20;99.90;;;;;;6223761;28;20046;-79
2023/09/08 04:43:15;;;;;;;7.90;6.53;;;15.20;99.90;;;;;;6224641;28;20054;-81
2023/09/08 04:46:17;;;;;;;7.88;6.72;;;15.20;99.90;;;;;;6224110;28;20161;-80
2023/09/08 04:49:19;;;;;;;8.02;7.20;;;15.20;99.90;;;;;;6224930;28;20046;-80
2023/09/08 04:52:21;;;;;;;7.10;6.20;;;15.20;99.90;;;;;;6223222;28;20061;-80
2023/09/08 04:55:24;;;;;;;7.72;5.30;;;15.20;99.90;;;;;;6224044;28;20061;-80
2023/09/08 04:58:27;;;;;;;6.35;5.72;;;15.20;99.90;;;;;;6224398;28;20038;-80
2023/09/08 05:01:29;;;;;;;6.97;6.03;;;15.20;99.90;;;;;;6224253;28;20727;-80
2023/09/08 05:04:31;;;;;;;8.52;6.32;;;15.20;99.90;;;;;;6224816;28;20422;-81
2023/09/08 05:07:33;;;;;;;6.95;5.82;;;15.20;99.90;;;;;;6225122;28;20414;-79
2023/09/08 05:10:34;;;;;;;6.80;6.15;;;15.20;99.90;;;;;;6224236;28;20049;-81
2023/09/08 05:13:37;;;;;;;10.60;8.93;;;15.20;99.90;;;;;;6223120;28;20050;-80
2023/09/08 05:16:45;;;;;;;9.75;7.68;;;15.10;99.90;;;;;;6223419;28;20050;-81
2023/09/08 05:19:47;;;;;;;8.80;6.78;;;15.20;99.90;;;;;;6223832;28;20558;-80
2023/09/08 05:22:49;;;;;;;7.30;6.18;;;15.20;99.90;;;;;;6223719;28;20038;-79
2023/09/08 05:25:50;;;;;;;7.72;6.32;;;15.30;99.90;;;;;;6224820;28;20302;-80
2023/09/08 05:28:53;;;;;;;8.18;6.50;;;15.50;99.90;;;;;;6223767;28;20041;-79
2023/09/08 05:31:55;;;;;;;11.85;6.05;;;15.60;99.90;;;;;;6223287;28;20053;-79
2023/09/08 05:34:57;;;;;;;7.85;7.05;;;15.70;99.90;;;;;;6224325;28;20050;-80
2023/09/08 05:37:58;;;;;;;9.27;5.82;;;15.80;99.90;;;;;;6223834;28;20076;-81
2023/09/08 05:41:00;;;;;;;7.47;5.75;;;15.90;99.90;;;;;;6223119;28;20042;-81
2023/09/08 05:44:03;;;;;;;7.13;5.68;;;16.10;99.90;;;;;;6223625;28;20057;-80
2023/09/08 05:47:05;;;;;;;7.13;5.97;;;16.30;99.90;;;;;;6222969;28;20057;-81
2023/09/08 05:50:07;;;;;;;5.53;5.00;;;16.40;99.90;;;;;;6222001;28;20068;-80
2023/09/08 05:53:09;;;;;;;7.53;5.72;;;16.60;99.90;;;;;;6223180;28;20046;-81
2023/09/08 05:56:11;;;;;;;7.30;6.20;;;16.80;99.90;;;;;;6223432;28;20046;-79
2023/09/08 05:59:14;;;;;;;7.03;5.63;;;17.00;99.90;;;;;;6224122;28;20046;-81
2023/09/08 06:02:16;;;;;;;8.27;5.13;;;17.10;99.90;;;;;;6223393;28;20046;-80
2023/09/08 06:05:18;;;;;;;9.43;6.68;;;17.30;99.90;;;;;;6223201;28;20057;-81
2023/09/08 06:08:19;;;;;;;5.30;4.70;;;17.50;99.90;;;;;;6222925;28;20045;-81
2023/09/08 06:11:21;;;;;;;8.10;5.60;;;17.80;99.90;;;;;;6223019;28;20057;-80
2023/09/08 06:14:24;;;;;;;6.28;5.65;;;18.10;99.90;;;;;;6222617;28;20514;-81
2023/09/08 06:17:26;;;;;;;9.55;6.88;;;18.30;99.90;;;;;;6223038;28;20054;-81
2023/09/08 06:20:27;;;;;;;6.97;5.47;;;18.50;99.90;;;;;;6222795;28;20046;-80
2023/09/08 06:23:29;;;;;;;4.72;4.07;;;18.90;99.90;;;;;;6223264;28;20054;-79
2023/09/08 06:26:31;;;;;;;6.32;5.72;;;19.20;99.90;;;;;;6221670;28;20045;-79
2023/09/08 06:29:34;;;;;;;8.02;5.25;;;19.60;99.90;;;;;;6223826;28;20056;-80
2023/09/08 06:32:35;;;;;;;8.82;4.75;;;20.10;99.90;;;;;;6225001;28;20042;-82
2023/09/08 06:35:37;;;;;;;6.32;5.30;;;20.60;99.90;;;;;;6227046;28;20042;-80
2023/09/08 06:38:38;;;;;;;7.85;5.93;;;20.90;99.90;;;;;;6226429;28;20042;-79
2023/09/08 06:41:40;;;;;;;7.65;6.53;;;21.00;99.90;;;;;;6226353;28;20042;-80
2023/09/08 06:44:43;;;;;;;9.07;5.75;;;21.10;99.90;;;;;;6225654;28;20042;-80
2023/09/08 06:47:45;;;;;;;7.78;6.97;;;21.20;99.90;;;;;;6226138;28;20049;-79
2023/09/08 06:50:47;;;;;;;7.68;6.07;;;21.40;99.90;;;;;;6226588;28;20045;-78
2023/09/08 06:53:56;;;;;;;9.48;5.75;;;21.50;99.90;;;;;;6225942;28;20708;-79
2023/09/08 06:56:57;;;;;;;7.05;6.35;;;21.80;99.90;;;;;;6226252;28;20046;-78
2023/09/08 07:00:00;;;;;;;14.13;6.60;;;22.00;99.90;;;;;;6226876;28;20052;-79
2023/09/08 07:03:02;;;;;;;8.32;6.25;;;22.20;99.90;;;;;;6226646;28;20128;-79
2023/09/08 07:06:04;;;;;;;5.90;5.30;;;22.40;99.90;;;;;;6225821;28;20058;-79
2023/09/08 07:09:06;;;;;;;8.40;6.32;;;22.70;99.90;;;;;;6225938;28;20054;-79
2023/09/08 07:12:08;;;;;;;8.18;6.00;;;23.00;99.90;;;;;;6225730;28;20046;-79
2023/09/08 07:15:11;;;;;;;11.80;6.05;;;23.30;99.90;;;;;;6226698;28;20060;-79
2023/09/08 07:18:12;;;;;;;6.32;5.47;;;23.50;99.90;;;;;;6225611;28;20050;-80
2023/09/08 07:21:14;;;;;;;10.65;5.95;;;23.70;99.90;;;;;;6224731;28;20049;-80
2023/09/08 07:24:16;;;;;;;9.25;5.95;;;23.90;99.50;;;;;;6225891;28;20046;-80
2023/09/08 07:27:19;;;;;;;7.38;5.50;;;24.10;99.00;;;;;;6225990;28;20176;-79
2023/09/08 07:30:22;;;;;;;7.50;5.97;;;24.30;98.30;;;;;;6225182;28;20502;-79
2023/09/08 07:33:24;;;;;;;7.22;6.22;;;24.60;97.80;;;;;;6225491;28;20050;-80
2023/09/08 07:36:25;;;;;;;7.13;5.68;;;24.90;96.90;;;;;;6225970;28;20252;-79
2023/09/08 07:39:27;;;;;;;9.25;6.63;;;25.20;96.20;;;;;;6225602;28;20502;-78
2023/09/08 07:42:29;;;;;;;5.78;5.18;;;25.40;95.60;;;;;;6225898;28;20054;-79
2023/09/08 07:45:32;;;;;;;8.20;5.35;;;25.60;95.10;;;;;;6239061;28;20096;-78
2023/09/08 07:48:34;;;;;;;8.23;5.75;;;25.80;94.50;;;;;;6225865;28;20053;-78
2023/09/08 07:51:36;;;;;;;6.95;5.55;;;26.10;94.00;;;;;;6225740;28;20061;-79
2023/09/08 07:54:37;;;;;;;8.32;6.10;;;26.40;93.60;;;;;;6224443;28;20045;-79
2023/09/08 07:57:39;;;;;;;6.30;5.47;;;26.80;93.20;;;;;;6172273;28;20578;-77
2023/09/08 08:00:42;;;;;;;9.10;6.38;;;27.20;92.60;;;;;;6212011;28;20517;-78
2023/09/08 08:03:44;;;;;;;7.75;5.20;;;27.60;92.00;;;;;;6225202;28;20049;-77
2023/09/08 08:06:47;;;;;;;7.53;5.22;;;28.10;91.20;;;;;;6219100;28;20050;-78
2023/09/08 08:09:49;;;;;;;6.82;5.07;;;28.70;90.10;;;;;;6220929;28;20055;-78
2023/09/08 08:12:50;;;;;;;6.35;5.13;;;29.20;87.40;;;;;;6225010;28;20038;-78
2023/09/08 08:15:53;;;;;;;13.27;6.60;;;29.50;84.80;;;;;;6223426;28;20057;-78
2023/09/08 08:18:55;;;;;;;6.78;6.07;;;29.70;82.70;;;;;;6226095;28;20050;-79
2023/09/08 08:21:57;;;;;;;9.23;6.25;;;30.10;80.70;;;;;;6218309;28;20053;-79
2023/09/08 08:24:58;;;;;;;7.78;5.15;;;30.10;78.30;;;;;;6225677;28;20524;-79
2023/09/08 08:28:00;;;;;;;7.68;6.88;;;30.00;77.20;;;;;;6226013;28;20433;-80
2023/09/08 08:31:04;;;;;;;7.50;5.90;;;30.20;75.80;;;;;;6230144;28;20103;-80
2023/09/08 08:34:06;;;;;;;7.45;5.50;;;30.20;74.80;;;;;;6227181;28;20061;-78
2023/09/08 08:37:07;;;;;;;6.60;4.80;;;30.30;74.60;;;;;;6226616;28;20091;-79
2023/09/08 08:40:12;;;;;;;5.55;5.05;;;30.30;74.20;;;;;;6225740;28;20042;-79
2023/09/08 08:43:14;;;;;;;6.90;5.57;;;30.10;74.00;;;;;;6228348;28;20056;-80
2023/09/08 08:46:20;;;;;;;5.72;4.43;;;30.00;74.40;;;;;;6226193;28;20046;-80
2023/09/08 08:49:23;;;;;;;6.35;5.68;;;29.90;74.90;;;;;;6219545;28;20041;-79
2023/09/08 08:52:26;;;;;;;5.82;5.15;;;29.80;75.20;;;;;;6216485;28;20042;-80
2023/09/08 08:55:30;;;;;;;6.65;5.20;;;29.70;75.10;;;;;;6224754;28;20353;-80
2023/09/08 08:58:32;;;;;;;9.18;5.30;;;29.60;75.30;;;;;;6225770;28;20046;-79
2023/09/08 09:01:36;;;;;;;6.55;5.20;;;29.60;75.50;;;;;;6225839;28;20073;-81
2023/09/08 09:04:38;;;;;;;5.72;4.78;;;29.70;75.40;;;;;;6225406;28;20052;-79
2023/09/08 09:07:40;;;;;;;9.70;6.10;;;29.80;75.30;;;;;;6225739;28;20522;-79
2023/09/08 09:10:42;;;;;;;4.82;4.43;;;29.80;75.10;;;;;;6225224;28;20056;-80
2023/09/08 09:13:44;;;;;;;5.25;4.60;;;29.50;75.10;;;;;;6224589;28;20116;-79
2023/09/08 09:16:47;;;;;;;8.35;4.97;;;29.20;76.00;;;;;;6226597;28;20048;-79
2023/09/08 09:19:49;;;;;;;9.68;5.28;;;29.20;76.20;;;;;;6224417;28;20054;-78
2023/09/08 09:22:51;;;;;;;9.05;5.97;;;29.50;76.30;;;;;;6224760;28;20042;-79
2023/09/08 09:25:53;;;;;;;6.28;5.00;;;29.70;75.90;;;;;;6226098;28;20042;-79
2023/09/08 09:28:55;;;;;;;7.80;5.30;;;30.00;75.40;;;;;;6224726;28;20046;-79
2023/09/08 09:32:02;;;;;;;10.73;5.88;;;30.20;74.60;;;;;;6223500;28;20046;-79
2023/09/08 09:35:05;;;;;;;6.78;6.20;;;30.00;74.30;;;;;;6224376;28;20506;-79
2023/09/08 09:38:07;;;;;;;7.18;5.55;;;29.90;75.10;;;;;;6225124;28;20057;-78
2023/09/08 09:41:09;;;;;;;6.90;5.10;;;30.20;75.00;;;;;;6225215;28;20128;-81
2023/09/08 09:44:11;;;;;;;7.50;5.78;;;30.50;74.50;;;;;;6224226;28;20060;-80
2023/09/08 09:47:16;;;;;;;8.77;5.30;;;30.90;73.60;;;;;;6223247;28;20046;-80
2023/09/08 09:50:28;;;;;;;6.65;4.95;;;31.00;72.90;;;;;;6224458;28;20045;-78
2023/09/08 09:53:30;;;;;;;7.28;5.45;;;31.30;72.30;;;;;;6216672;28;20056;-78
2023/09/08 09:56:32;;;;;;;8.35;5.32;;;31.50;71.70;;;;;;6224818;28;20041;-79
2023/09/08 09:59:34;;;;;;;8.57;5.15;;;31.60;71.20;;;;;;6223876;28;20050;-80
2023/09/08 10:02:38;;;;;;;6.90;4.90;;;31.70;70.70;;;;;;6223957;28;20042;-79
2023/09/08 10:05:39;;;;;;;5.93;5.43;;;31.80;70.70;;;;;;6228566;28;20050;-79
2023/09/08 10:08:42;;;;;;;7.60;5.30;;;31.90;69.50;;;;;;6229578;28;20041;-79
2023/09/08 10:11:48;;;;;;;6.65;5.40;;;32.00;69.10;;;;;;6229185;28;20057;-79
2023/09/08 10:14:54;;;;;;;9.52;5.30;;;32.20;68.70;;;;;;6229438;28;20053;-79
2023/09/08 10:17:59;;;;;;;8.48;5.85;;;32.30;68.30;;;;;;6228808;28;20057;-79
2023/09/08 10:21:05;;;;;;;7.63;5.47;;;32.20;67.70;;;;;;6228421;28;20050;-79
2023/09/08 10:24:14;;;;;;;6.18;5.55;;;32.10;67.90;;;;;;6228473;28;20049;-79
2023/09/08 10:27:18;;;;;;;7.38;5.05;;;32.20;67.60;;;;;;6228733;28;20129;-79
2023/09/08 10:30:21;;;;;;;7.95;5.70;;;32.40;67.50;;;;;;6223336;28;20046;-79
2023/09/08 10:33:26;;;;;;;6.22;5.45;;;32.60;67.10;;;;;;6228173;28;20053;-79
2023/09/08 10:36:28;;;;;;;7.10;5.57;;;33.00;66.70;;;;;;6228309;28;20050;-79
2023/09/08 10:39:35;;;;;;;5.32;4.82;;;33.40;66.00;;;;;;6220999;28;20046;-80
2023/09/08 10:42:41;;;;;;;5.03;4.53;;;33.70;65.10;;;;;;6227698;28;20064;-81
2023/09/08 10:45:42;;;;;;;5.40;4.90;;;34.10;64.30;;;;;;6228163;28;20356;-80
2023/09/08 10:48:46;;;;;;;7.80;4.57;;;34.30;63.80;;;;;;6227872;28;20046;-80
2023/09/08 10:51:49;;;;;;;5.13;4.63;;;34.40;63.20;;;;;;6226991;28;20053;-78
2023/09/08 10:54:52;;;;;;;5.53;4.38;;;34.60;62.80;;;;;;6228102;28;20052;-79
2023/09/08 10:57:55;;;;;;;6.00;4.25;;;34.70;62.50;;;;;;6227170;28;20499;-81
2023/09/08 11:01:01;;;;;;;6.05;5.45;;;34.90;62.10;;;;;;6227876;28;20042;-80
2023/09/08 11:04:08;;;;;;;4.95;4.45;;;35.10;61.40;;;;;;6227740;28;20041;-80
2023/09/08 11:07:10;;;;;;;5.28;4.47;;;35.30;60.70;;;;;;6227396;28;20049;-79
2023/09/08 11:10:13;;;;;;;6.68;4.95;;;35.50;60.30;;;;;;6226795;28;20050;-80
2023/09/08 11:13:15;;;;;;;4.47;4.10;;;35.80;59.60;;;;;;6226676;28;20075;-80
2023/09/08 11:16:21;;;;;;;6.10;5.50;;;35.90;59.00;;;;;;6226220;28;20048;-79
2023/09/08 11:19:24;;;;;;;7.90;4.30;;;35.70;58.40;;;;;;6226862;28;20388;-79
2023/09/08 11:22:27;;;;;;;4.88;4.40;;;35.60;58.10;;;;;;6225940;28;20100;-79
2023/09/08 11:25:29;;;;;;;4.75;4.35;;;35.70;58.30;;;;;;6226977;28;20046;-78
2023/09/08 11:28:32;;;;;;;5.63;5.07;;;35.80;57.90;;;;;;6224059;28;20125;-80
2023/09/08 11:31:34;;;;;;;8.48;4.82;;;35.90;57.50;;;;;;6234240;28;20057;-79
2023/09/08 11:34:37;;;;;;;7.68;5.50;;;36.20;57.10;;;;;;6226387;28;20053;-81
2023/09/08 11:37:41;;;;;;;9.13;6.28;;;36.40;56.70;;;;;;6227337;28;20053;-81
2023/09/08 11:40:42;;;;;;;13.63;6.32;;;36.50;56.30;;;;;;6226247;28;20048;-79
2023/09/08 11:43:44;;;;;;;7.80;5.38;;;36.70;55.80;;;;;;6226155;28;20038;-80
2023/09/08 11:46:48;;;;;;;11.13;6.07;;;37.10;55.60;;;;;;6227605;28;20493;-80
2023/09/08 11:49:54;;;;;;;11.02;5.80;;;37.30;54.60;;;;;;6223589;28;20053;-80
2023/09/08 11:52:57;;;;;;;7.33;4.23;;;37.30;54.80;;;;;;6225618;28;20065;-80
2023/09/08 11:55:59;;;;;;;6.40;5.07;;;37.70;54.70;;;;;;6226048;28;20305;-80
2023/09/08 11:59:02;;;;;;;6.55;4.75;;;37.80;54.30;;;;;;6226691;28;20053;-80
2023/09/08 12:02:05;;;;;;;8.25;4.22;;;38.00;54.10;;;;;;6225627;28;20052;-80
2023/09/08 12:05:12;;;;;;;5.60;5.10;;;38.10;53.50;;;;;;6225479;28;20129;-80
2023/09/08 12:08:14;;;;;;;8.25;6.32;;;38.30;53.10;;;;;;6225630;28;20053;-81
2023/09/08 12:11:15;;;;;;;5.45;4.03;;;38.30;52.70;;;;;;6226234;28;20049;-81
2023/09/08 12:14:17;;;;;;;4.88;4.38;;;38.50;52.50;;;;;;6225700;28;20038;-80
2023/09/08 12:17:24;;;;;;;9.10;5.35;;;38.60;52.10;;;;;;6225077;28;20510;-79
2023/09/08 12:20:27;;;;;;;5.07;4.45;;;38.60;51.90;;;;;;6224968;28;20038;-80
2023/09/08 12:23:29;;;;;;;8.45;4.90;;;38.30;52.00;;;;;;6225434;28;20057;-79
2023/09/08 12:26:31;;;;;;;6.68;4.50;;;38.10;52.50;;;;;;6223485;28;20117;-81
2023/09/08 12:29:32;;;;;;;5.20;4.75;;;38.30;52.30;;;;;;6225189;28;20049;-79
2023/09/08 12:32:36;;;;;;;4.75;4.22;;;38.30;52.00;;;;;;6225280;28;20117;-79
2023/09/08 12:35:39;;;;;;;5.20;4.00;;;38.10;52.00;;;;;;6225982;28;20125;-79
2023/09/08 12:38:40;;;;;;;5.28;4.20;;;38.20;52.10;;;;;;6225482;28;20042;-80
2023/09/08 12:41:42;;;;;;;6.72;4.20;;;38.30;51.80;;;;;;6224171;28;20058;-81
2023/09/08 12:44:44;;;;;;;8.43;4.38;;;38.30;51.80;;;;;;6225584;28;20077;-80
2023/09/08 12:47:45;;;;;;;6.07;4.40;;;38.50;51.80;;;;;;6224746;28;20530;-81
2023/09/08 12:50:49;;;;;;;3.92;3.63;;;38.60;52.10;;;;;;6225289;28;20518;-80
2023/09/08 12:53:51;;;;;;;5.90;4.78;;;39.00;51.40;;;;;;6216069;28;20041;-81
2023/09/08 12:56:52;;;;;;;4.60;4.20;;;38.70;50.90;;;;;;6225574;28;20053;-80
2023/09/08 12:59:54;;;;;;;4.93;4.53;;;38.70;50.70;;;;;;6225471;28;20057;-80
2023/09/08 13:02:56;;;;;;;5.40;3.97;;;38.80;51.20;;;;;;6223726;28;20050;-80
2023/09/08 13:05:59;;;;;;;4.20;3.63;;;38.90;49.90;;;;;;6223346;28;20045;-79
2023/09/08 13:09:01;;;;;;;5.45;4.10;;;38.90;50.10;;;;;;6223382;28;20050;-80
2023/09/08 13:12:02;;;;;;;5.95;3.55;;;39.10;49.70;;;;;;6224412;28;20046;-80
2023/09/08 13:15:05;;;;;;;4.30;3.90;;;39.30;49.30;;;;;;6224346;28;20046;-80
2023/09/08 13:18:06;;;;;;;4.65;4.07;;;39.50;48.90;;;;;;6223232;28;20498;-80
2023/09/08 13:21:09;;;;;;;4.40;3.97;;;39.70;48.40;;;;;;6222451;28;20053;-80
2023/09/08 13:24:12;;;;;;;3.60;3.30;;;39.40;48.50;;;;;;6222858;28;20041;-80
2023/09/08 13:27:15;;;;;;;4.15;3.78;;;39.40;48.30;;;;;;6224976;28;20046;-81
2023/09/08 13:30:18;;;;;;;4.60;4.20;;;39.60;48.20;;;;;;6224252;28;20049;-81
2023/09/08 13:33:20;;;;;;;5.05;4.50;;;40.10;47.70;;;;;;6224187;28;20514;-79
2023/09/08 13:36:23;;;;;;;3.85;3.45;;;40.40;47.30;;;;;;6225207;28;20038;-82
2023/09/08 13:39:25;;;;;;;4.47;4.07;;;40.50;47.00;;;;;;6228543;28;20046;-80
2023/09/08 13:42:27;;;;;;;4.45;4.05;;;40.30;46.50;;;;;;6228588;28;20041;-80
2023/09/08 13:45:28;;;;;;;5.15;4.30;;;39.70;47.00;;;;;;6230450;28;20046;-80
2023/09/08 13:48:30;;;;;;;3.90;3.60;;;39.80;46.70;;;;;;6228754;28;20052;-80
2023/09/08 13:51:33;;;;;;;5.57;3.78;;;39.90;46.60;;;;;;6228511;28;20052;-80
2023/09/08 13:54:35;;;;;;;3.22;2.95;;;39.80;46.80;;;;;;6229000;28;20064;-80
2023/09/08 13:57:37;;;;;;;5.00;4.25;;;40.00;46.50;;;;;;6228812;28;20048;-79
2023/09/08 14:00:39;;;;;;;3.72;3.28;;;40.00;45.90;;;;;;6228173;28;20044;-80
2023/09/08 14:03:41;;;;;;;3.63;3.33;;;39.70;46.00;;;;;;6230494;28;20418;-79
2023/09/08 14:06:44;;;;;;;4.88;3.58;;;39.60;46.10;;;;;;6230375;28;20056;-80
2023/09/08 14:09:45;;;;;;;3.55;3.25;;;39.60;46.20;;;;;;6228817;28;20042;-80
2023/09/08 14:12:47;;;;;;;3.85;3.45;;;39.80;46.00;;;;;;6230112;28;20046;-80
2023/09/08 14:15:49;;;;;;;5.03;3.75;;;40.10;45.80;;;;;;6229153;28;20065;-80
2023/09/08 14:18:50;;;;;;;3.80;3.38;;;40.30;45.50;;;;;;6229305;28;20051;-79
2023/09/08 14:21:53;;;;;;;4.70;3.78;;;40.30;45.50;;;;;;6228033;28;20052;-80
2023/09/08 14:24:55;;;;;;;4.15;3.53;;;40.40;45.20;;;;;;6228726;28;20046;-80
2023/09/08 14:27:57;;;;;;;4.43;3.83;;;40.10;45.30;;;;;;6229023;28;20490;-80
2023/09/08 14:30:59;;;;;;;3.63;2.92;;;40.20;45.40;;;;;;6228093;28;20422;-80
2023/09/08 14:34:01;;;;;;;5.50;3.17;;;40.20;45.40;;;;;;6229235;28;20042;-80
2023/09/08 14:37:04;;;;;;;4.40;4.00;;;40.30;45.20;;;;;;6228255;28;20046;-80
2023/09/08 14:40:07;;;;;;;7.40;3.70;;;40.70;44.60;;;;;;6228821;28;20050;-80
2023/09/08 14:43:09;;;;;;;4.97;4.18;;;40.70;44.40;;;;;;6229313;28;20046;-80
2023/09/08 14:46:10;;;;;;;4.85;3.53;;;40.40;44.20;;;;;;6226005;28;20050;-80
2023/09/08 14:49:14;;;;;;;4.78;3.85;;;40.20;44.70;;;;;;6227700;28;20041;-78
2023/09/08 14:52:20;;;;;;;3.58;3.28;;;40.30;44.70;;;;;;6228669;28;20046;-81
2023/09/08 14:55:22;;;;;;;4.50;3.90;;;40.10;44.50;;;;;;6228910;28;20528;-79
2023/09/08 14:58:23;;;;;;;3.80;3.50;;;40.00;44.80;;;;;;6228961;28;20324;-80
2023/09/08 15:01:25;;;;;;;6.57;3.70;;;39.90;44.70;;;;;;6228375;28;20049;-81
2023/09/08 15:04:27;;;;;;;5.35;4.10;;;39.40;44.60;;;;;;6229319;28;20517;-80
2023/09/08 15:07:30;;;;;;;3.10;2.75;;;38.80;45.00;;;;;;6229803;28;20080;-80
2023/09/08 15:10:31;;;;;;;6.15;4.03;;;38.30;45.40;;;;;;6228717;28;20041;-80
2023/09/08 15:13:33;;;;;;;7.45;3.53;;;37.80;45.80;;;;;;6228458;28;20041;-80
2023/09/08 15:16:35;;;;;;;3.85;3.55;;;37.30;46.40;;;;;;6230347;28;20045;-80
2023/09/08 15:19:36;;;;;;;5.05;3.63;;;36.70;47.00;;;;;;6228307;28;20046;-80
2023/09/08 15:22:39;;;;;;;4.55;3.95;;;36.30;47.60;;;;;;6222900;28;20057;-80
2023/09/08 15:25:41;;;;;;;5.47;4.63;;;36.00;48.10;;;;;;6227851;28;20049;-80
2023/09/08 15:28:43;;;;;;;4.63;3.85;;;35.60;48.60;;;;;;6238920;28;20056;-80
2023/09/08 15:31:44;;;;;;;4.30;3.90;;;35.30;48.90;;;;;;6248112;28;20050;-79
2023/09/08 15:34:49;;;;;;;5.97;4.78;;;34.90;49.40;;;;;;6248656;28;20097;-80
2023/09/08 15:37:53;;;;;;;7.53;5.13;;;34.50;49.80;;;;;;6230544;28;20762;-80
2023/09/08 15:41:20;;;;;;;4.80;4.30;;;34.10;50.50;;;;;;6228479;28;20042;-79
2023/09/08 15:44:21;;;;;;;5.18;4.28;;;33.90;51.50;;;;;;6227913;28;20042;-80
2023/09/08 15:47:23;;;;;;;4.93;4.43;;;33.70;51.30;;;;;;6225596;28;20052;-79
2023/09/08 15:50:25;;;;;;;4.63;4.22;;;33.40;51.60;;;;;;6224394;28;20038;-79